sensor_id;sensor_type;location;lat;lon;timestamp;pressure;altitude;pressure_sealevel;temperature;humidity
16806;BME280;8520;50.102;20.010;2022-08-03T00:01:04;98534.00;;;19.79;94.03
16806;BME280;8520;50.102;20.010;2022-08-03T00:03:53;98535.47;;;19.99;93.23
16806;BME280;8520;50.102;20.010;2022-08-03T00:06:42;98535.09;;;20.08;93.08
16806;BME280;8520;50.102;20.010;2022-08-03T00:09:32;98545.09;;;20.67;90.29
16806;BME280;8520;50.102;20.010;2022-08-03T00:12:21;98535.16;;;20.93;88.51
16806;BME280;8520;50.102;20.010;2022-08-03T00:15:10;98540.53;;;20.51;90.75
16806;BME280;8520;50.102;20.010;2022-08-03T00:18:03;98530.22;;;20.99;88.66
16806;BME280;8520;50.102;20.010;2022-08-03T00:20:51;98533.03;;;20.99;88.30
16806;BME280;8520;50.102;20.010;2022-08-03T00:23:40;98544.56;;;20.95;88.54
16806;BME280;8520;50.102;20.010;2022-08-03T00:26:39;98536.88;;;20.83;88.67
16806;BME280;8520;50.102;20.010;2022-08-03T00:29:28;98537.66;;;21.10;88.37
16806;BME280;8520;50.102;20.010;2022-08-03T00:32:16;98531.81;;;21.21;87.36
16806;BME280;8520;50.102;20.010;2022-08-03T00:35:10;98540.78;;;21.19;87.36
16806;BME280;8520;50.102;20.010;2022-08-03T00:38:19;98543.00;;;20.55;90.21
16806;BME280;8520;50.102;20.010;2022-08-03T00:41:07;98548.13;;;19.49;94.59
16806;BME280;8520;50.102;20.010;2022-08-03T00:43:57;98550.19;;;19.24;97.04
16806;BME280;8520;50.102;20.010;2022-08-03T00:46:46;98550.72;;;18.73;100.00
16806;BME280;8520;50.102;20.010;2022-08-03T00:49:34;98552.41;;;18.82;100.00
16806;BME280;8520;50.102;20.010;2022-08-03T00:52:23;98551.88;;;19.08;98.78
16806;BME280;8520;50.102;20.010;2022-08-03T00:55:11;98552.47;;;19.44;97.05
16806;BME280;8520;50.102;20.010;2022-08-03T00:58:01;98556.41;;;19.54;95.88
16806;BME280;8520;50.102;20.010;2022-08-03T01:00:54;98556.78;;;19.45;95.31
16806;BME280;8520;50.102;20.010;2022-08-03T01:03:42;98551.38;;;19.72;94.34
16806;BME280;8520;50.102;20.010;2022-08-03T01:06:35;98550.78;;;19.60;95.02
16806;BME280;8520;50.102;20.010;2022-08-03T01:09:35;98555.25;;;19.25;97.71
16806;BME280;8520;50.102;20.010;2022-08-03T01:12:31;98545.53;;;19.32;97.47
16806;BME280;8520;50.102;20.010;2022-08-03T01:15:26;98544.50;;;19.11;99.46
16806;BME280;8520;50.102;20.010;2022-08-03T01:18:23;98545.66;;;19.21;99.93
16806;BME280;8520;50.102;20.010;2022-08-03T01:21:17;98540.31;;;19.42;98.40
16806;BME280;8520;50.102;20.010;2022-08-03T01:24:20;98548.00;;;19.60;98.56
16806;BME280;8520;50.102;20.010;2022-08-03T01:27:14;98542.94;;;19.58;97.73
16806;BME280;8520;50.102;20.010;2022-08-03T01:30:07;98553.44;;;19.47;98.60
16806;BME280;8520;50.102;20.010;2022-08-03T01:32:59;98554.06;;;19.40;99.07
16806;BME280;8520;50.102;20.010;2022-08-03T01:35:52;98553.13;;;19.13;99.53
16806;BME280;8520;50.102;20.010;2022-08-03T01:38:45;98549.34;;;18.86;100.00
16806;BME280;8520;50.102;20.010;2022-08-03T01:41:43;98550.03;;;18.67;100.00
16806;BME280;8520;50.102;20.010;2022-08-03T01:44:35;98545.97;;;18.63;100.00
16806;BME280;8520;50.102;20.010;2022-08-03T01:47:27;98544.69;;;18.69;100.00
16806;BME280;8520;50.102;20.010;2022-08-03T01:50:19;98547.56;;;19.31;99.51
16806;BME280;8520;50.102;20.010;2022-08-03T01:53:09;98539.00;;;19.67;96.63
16806;BME280;8520;50.102;20.010;2022-08-03T01:56:01;98537.44;;;20.04;95.40
16806;BME280;8520;50.102;20.010;2022-08-03T01:58:51;98537.41;;;20.23;93.82
16806;BME280;8520;50.102;20.010;2022-08-03T02:01:42;98535.03;;;20.27;93.46
16806;BME280;8520;50.102;20.010;2022-08-03T02:04:54;98534.97;;;20.32;92.95
16806;BME280;8520;50.102;20.010;2022-08-03T02:07:44;98528.25;;;20.54;91.89
16806;BME280;8520;50.102;20.010;2022-08-03T02:10:34;98540.09;;;20.60;91.04
16806;BME280;8520;50.102;20.010;2022-08-03T02:13:24;98534.16;;;19.86;94.02
16806;BME280;8520;50.102;20.010;2022-08-03T02:16:13;98542.19;;;19.58;95.97
16806;BME280;8520;50.102;20.010;2022-08-03T02:19:04;98539.56;;;19.22;98.33
16806;BME280;8520;50.102;20.010;2022-08-03T02:21:56;98537.13;;;18.89;99.60
16806;BME280;8520;50.102;20.010;2022-08-03T02:24:47;98533.56;;;19.13;98.60
16806;BME280;8520;50.102;20.010;2022-08-03T02:27:39;98529.44;;;19.38;97.55
16806;BME280;8520;50.102;20.010;2022-08-03T02:30:33;98527.94;;;19.56;95.45
16806;BME280;8520;50.102;20.010;2022-08-03T02:33:27;98531.84;;;19.47;96.54
16806;BME280;8520;50.102;20.010;2022-08-03T02:36:22;98530.44;;;19.41;96.75
16806;BME280;8520;50.102;20.010;2022-08-03T02:39:16;98531.97;;;19.79;94.77
16806;BME280;8520;50.102;20.010;2022-08-03T02:42:07;98533.28;;;19.54;95.24
16806;BME280;8520;50.102;20.010;2022-08-03T02:45:02;98533.19;;;19.03;97.22
16806;BME280;8520;50.102;20.010;2022-08-03T02:47:59;98530.91;;;18.77;98.63
16806;BME280;8520;50.102;20.010;2022-08-03T02:50:52;98534.09;;;18.32;100.00
16806;BME280;8520;50.102;20.010;2022-08-03T02:53:42;98530.03;;;17.98;100.00
16806;BME280;8520;50.102;20.010;2022-08-03T02:56:34;98525.44;;;17.59;100.00
16806;BME280;8520;50.102;20.010;2022-08-03T02:59:23;98525.44;;;17.59;100.00
16806;BME280;8520;50.102;20.010;2022-08-03T03:02:14;98537.81;;;17.75;100.00
16806;BME280;8520;50.102;20.010;2022-08-03T03:05:04;98538.50;;;17.86;100.00
16806;BME280;8520;50.102;20.010;2022-08-03T03:08:14;98540.75;;;18.54;99.09
16806;BME280;8520;50.102;20.010;2022-08-03T03:11:06;98543.63;;;18.97;95.70
16806;BME280;8520;50.102;20.010;2022-08-03T03:13:58;98541.63;;;19.16;94.90
16806;BME280;8520;50.102;20.010;2022-08-03T03:16:47;98544.28;;;19.27;93.63
16806;BME280;8520;50.102;20.010;2022-08-03T03:19:44;98544.19;;;19.39;93.28
16806;BME280;8520;50.102;20.010;2022-08-03T03:22:34;98541.25;;;19.50;93.06
16806;BME280;8520;50.102;20.010;2022-08-03T03:25:27;98542.41;;;19.60;93.11
16806;BME280;8520;50.102;20.010;2022-08-03T03:28:16;98543.09;;;19.66;92.97
16806;BME280;8520;50.102;20.010;2022-08-03T03:31:06;98538.47;;;19.69;93.21
16806;BME280;8520;50.102;20.010;2022-08-03T03:33:56;98539.44;;;19.71;93.23
16806;BME280;8520;50.102;20.010;2022-08-03T03:36:45;98533.78;;;19.77;92.63
16806;BME280;8520;50.102;20.010;2022-08-03T03:39:33;98546.09;;;19.68;93.03
16806;BME280;8520;50.102;20.010;2022-08-03T03:42:24;98551.38;;;19.72;91.83
16806;BME280;8520;50.102;20.010;2022-08-03T03:45:12;98551.88;;;19.08;93.44
16806;BME280;8520;50.102;20.010;2022-08-03T03:48:04;98544.38;;;18.43;98.34
16806;BME280;8520;50.102;20.010;2022-08-03T03:50:52;98546.31;;;18.24;100.00
16806;BME280;8520;50.102;20.010;2022-08-03T03:53:54;98560.22;;;18.59;100.00
16806;BME280;8520;50.102;20.010;2022-08-03T03:56:42;98554.31;;;19.17;97.00
16806;BME280;8520;50.102;20.010;2022-08-03T03:59:30;98556.91;;;19.58;94.92
16806;BME280;8520;50.102;20.010;2022-08-03T04:02:22;98558.25;;;19.89;93.40
16806;BME280;8520;50.102;20.010;2022-08-03T04:05:13;98565.09;;;20.07;92.75
16806;BME280;8520;50.102;20.010;2022-08-03T04:08:18;98565.47;;;20.17;92.42
16806;BME280;8520;50.102;20.010;2022-08-03T04:11:31;98561.88;;;20.35;92.10
16806;BME280;8520;50.102;20.010;2022-08-03T04:14:24;98568.50;;;20.51;91.63
16806;BME280;8520;50.102;20.010;2022-08-03T04:17:14;98576.94;;;20.64;91.43
16806;BME280;8520;50.102;20.010;2022-08-03T04:20:05;98563.72;;;20.78;90.94
16806;BME280;8520;50.102;20.010;2022-08-03T04:22:57;98571.13;;;20.76;89.16
16806;BME280;8520;50.102;20.010;2022-08-03T04:25:48;98578.69;;;20.81;89.05
16806;BME280;8520;50.102;20.010;2022-08-03T04:28:38;98575.25;;;20.88;88.61
16806;BME280;8520;50.102;20.010;2022-08-03T04:31:28;98581.59;;;20.88;87.81
16806;BME280;8520;50.102;20.010;2022-08-03T04:34:18;98583.13;;;21.02;87.60
16806;BME280;8520;50.102;20.010;2022-08-03T04:37:10;98581.31;;;21.18;87.65
16806;BME280;8520;50.102;20.010;2022-08-03T04:40:02;98585.50;;;21.25;87.21
16806;BME280;8520;50.102;20.010;2022-08-03T04:42:53;98583.81;;;21.35;86.66
16806;BME280;8520;50.102;20.010;2022-08-03T04:45:46;98599.88;;;21.35;85.71
16806;BME280;8520;50.102;20.010;2022-08-03T04:48:35;98590.38;;;21.38;86.17
16806;BME280;8520;50.102;20.010;2022-08-03T04:51:24;98593.72;;;21.49;85.80
16806;BME280;8520;50.102;20.010;2022-08-03T04:54:13;98602.25;;;21.31;87.11
16806;BME280;8520;50.102;20.010;2022-08-03T04:57:03;98606.53;;;21.45;86.75
16806;BME280;8520;50.102;20.010;2022-08-03T04:59:53;98604.41;;;21.51;86.55
16806;BME280;8520;50.102;20.010;2022-08-03T05:02:48;98601.47;;;21.56;86.76
16806;BME280;8520;50.102;20.010;2022-08-03T05:05:37;98600.81;;;21.64;85.93
16806;BME280;8520;50.102;20.010;2022-08-03T05:08:36;98600.81;;;21.64;86.56
16806;BME280;8520;50.102;20.010;2022-08-03T05:11:36;98599.03;;;21.40;87.63
16806;BME280;8520;50.102;20.010;2022-08-03T05:14:26;98596.19;;;21.53;87.44
16806;BME280;8520;50.102;20.010;2022-08-03T05:17:14;98596.72;;;21.38;87.94
16806;BME280;8520;50.102;20.010;2022-08-03T05:20:04;98600.84;;;21.37;88.79
16806;BME280;8520;50.102;20.010;2022-08-03T05:22:53;98601.59;;;21.38;89.59
16806;BME280;8520;50.102;20.010;2022-08-03T05:25:41;98594.03;;;21.59;88.49
16806;BME280;8520;50.102;20.010;2022-08-03T05:28:36;98595.84;;;21.70;87.81
16806;BME280;8520;50.102;20.010;2022-08-03T05:31:25;98601.06;;;22.00;86.39
16806;BME280;8520;50.102;20.010;2022-08-03T05:34:14;98599.53;;;21.99;86.51
16806;BME280;8520;50.102;20.010;2022-08-03T05:37:02;98599.53;;;22.12;86.18
16806;BME280;8520;50.102;20.010;2022-08-03T05:39:51;98598.94;;;22.27;86.04
16806;BME280;8520;50.102;20.010;2022-08-03T05:42:39;98595.44;;;22.55;85.01
16806;BME280;8520;50.102;20.010;2022-08-03T05:45:28;98596.97;;;22.35;84.44
16806;BME280;8520;50.102;20.010;2022-08-03T05:48:17;98602.28;;;22.67;83.27
16806;BME280;8520;50.102;20.010;2022-08-03T05:51:06;98607.38;;;22.89;82.75
16806;BME280;8520;50.102;20.010;2022-08-03T05:53:58;98604.88;;;23.07;82.36
16806;BME280;8520;50.102;20.010;2022-08-03T05:56:46;98605.13;;;23.16;81.37
16806;BME280;8520;50.102;20.010;2022-08-03T05:59:37;98601.97;;;23.20;81.27
16806;BME280;8520;50.102;20.010;2022-08-03T06:02:44;98597.16;;;23.28;80.42
16806;BME280;8520;50.102;20.010;2022-08-03T06:05:34;98603.44;;;23.42;80.78
16806;BME280;8520;50.102;20.010;2022-08-03T06:08:29;98604.66;;;23.62;80.10
16806;BME280;8520;50.102;20.010;2022-08-03T06:11:17;98609.81;;;23.78;79.12
16806;BME280;8520;50.102;20.010;2022-08-03T06:14:06;98610.56;;;23.79;79.03
16806;BME280;8520;50.102;20.010;2022-08-03T06:16:54;98616.13;;;23.64;78.99
16806;BME280;8520;50.102;20.010;2022-08-03T06:19:43;98608.19;;;23.98;78.01
16806;BME280;8520;50.102;20.010;2022-08-03T06:22:33;98611.25;;;24.16;78.55
16806;BME280;8520;50.102;20.010;2022-08-03T06:25:36;98610.28;;;24.13;78.77
16806;BME280;8520;50.102;20.010;2022-08-03T06:28:25;98609.34;;;24.10;79.83
16806;BME280;8520;50.102;20.010;2022-08-03T06:31:33;98605.44;;;24.29;78.34
16806;BME280;8520;50.102;20.010;2022-08-03T06:34:22;98609.66;;;24.43;77.67
16806;BME280;8520;50.102;20.010;2022-08-03T06:37:21;98610.97;;;24.65;76.19
16806;BME280;8520;50.102;20.010;2022-08-03T06:40:14;98609.22;;;24.24;77.06
16806;BME280;8520;50.102;20.010;2022-08-03T06:43:11;98611.13;;;24.59;77.90
16806;BME280;8520;50.102;20.010;2022-08-03T06:46:02;98612.31;;;24.79;76.28
16806;BME280;8520;50.102;20.010;2022-08-03T06:48:51;98618.88;;;25.12;74.72
16806;BME280;8520;50.102;20.010;2022-08-03T06:51:40;98616.03;;;25.35;74.48
16806;BME280;8520;50.102;20.010;2022-08-03T06:54:48;98616.81;;;25.05;75.62
16806;BME280;8520;50.102;20.010;2022-08-03T06:57:39;98625.81;;;25.11;74.83
16806;BME280;8520;50.102;20.010;2022-08-03T07:00:27;98624.69;;;24.76;76.86
16806;BME280;8520;50.102;20.010;2022-08-03T07:03:16;98628.06;;;24.52;77.06
16806;BME280;8520;50.102;20.010;2022-08-03T07:06:05;98623.94;;;24.76;77.08
16806;BME280;8520;50.102;20.010;2022-08-03T07:08:53;98618.50;;;25.08;75.34
16806;BME280;8520;50.102;20.010;2022-08-03T07:11:45;98626.56;;;25.35;74.30
16806;BME280;8520;50.102;20.010;2022-08-03T07:14:35;98622.41;;;24.67;77.08
16806;BME280;8520;50.102;20.010;2022-08-03T07:17:24;98635.22;;;24.83;75.48
16806;BME280;8520;50.102;20.010;2022-08-03T07:20:12;98616.59;;;25.26;75.16
16806;BME280;8520;50.102;20.010;2022-08-03T07:23:03;98630.16;;;25.12;74.50
16806;BME280;8520;50.102;20.010;2022-08-03T07:25:51;98630.47;;;25.39;74.09
16806;BME280;8520;50.102;20.010;2022-08-03T07:28:40;98637.09;;;25.19;74.50
16806;BME280;8520;50.102;20.010;2022-08-03T07:31:30;98633.28;;;25.55;73.99
16806;BME280;8520;50.102;20.010;2022-08-03T07:34:20;98627.78;;;25.72;72.84
16806;BME280;8520;50.102;20.010;2022-08-03T07:37:09;98624.56;;;25.83;72.51
16806;BME280;8520;50.102;20.010;2022-08-03T07:39:58;98629.06;;;26.26;72.19
16806;BME280;8520;50.102;20.010;2022-08-03T07:42:46;98630.03;;;25.81;72.54
16806;BME280;8520;50.102;20.010;2022-08-03T07:45:39;98634.47;;;25.99;72.29
16806;BME280;8520;50.102;20.010;2022-08-03T07:48:29;98634.94;;;26.13;72.03
16806;BME280;8520;50.102;20.010;2022-08-03T07:51:17;98629.47;;;26.55;71.19
16806;BME280;8520;50.102;20.010;2022-08-03T07:54:06;98622.91;;;26.95;69.78
16806;BME280;8520;50.102;20.010;2022-08-03T07:56:56;98617.69;;;27.34;68.45
16806;BME280;8520;50.102;20.010;2022-08-03T07:59:45;98620.03;;;27.62;67.31
16806;BME280;8520;50.102;20.010;2022-08-03T08:02:57;98615.78;;;27.54;66.29
16806;BME280;8520;50.102;20.010;2022-08-03T08:05:47;98617.00;;;27.60;66.39
16806;BME280;8520;50.102;20.010;2022-08-03T08:08:37;98620.00;;;27.97;64.87
16806;BME280;8520;50.102;20.010;2022-08-03T08:11:25;98622.09;;;27.96;63.76
16806;BME280;8520;50.102;20.010;2022-08-03T08:14:14;98628.25;;;28.02;62.57
16806;BME280;8520;50.102;20.010;2022-08-03T08:17:02;98626.13;;;28.20;62.88
16806;BME280;8520;50.102;20.010;2022-08-03T08:19:53;98624.72;;;28.12;62.31
16806;BME280;8520;50.102;20.010;2022-08-03T08:22:45;98627.03;;;28.23;62.56
16806;BME280;8520;50.102;20.010;2022-08-03T08:25:36;98630.72;;;28.43;62.52
16806;BME280;8520;50.102;20.010;2022-08-03T08:28:24;98633.19;;;28.56;61.77
16806;BME280;8520;50.102;20.010;2022-08-03T08:31:19;98624.50;;;28.44;61.93
16806;BME280;8520;50.102;20.010;2022-08-03T08:34:07;98630.91;;;28.45;62.87
16806;BME280;8520;50.102;20.010;2022-08-03T08:36:56;98625.63;;;28.68;62.98
16806;BME280;8520;50.102;20.010;2022-08-03T08:39:47;98626.97;;;29.04;60.47
16806;BME280;8520;50.102;20.010;2022-08-03T08:42:36;98627.75;;;29.33;59.88
16806;BME280;8520;50.102;20.010;2022-08-03T08:45:31;98623.06;;;28.89;60.20
16806;BME280;8520;50.102;20.010;2022-08-03T08:48:23;98633.38;;;28.95;60.66
16806;BME280;8520;50.102;20.010;2022-08-03T08:51:13;98626.28;;;29.32;60.05
16806;BME280;8520;50.102;20.010;2022-08-03T08:54:02;98631.97;;;29.42;59.39
16806;BME280;8520;50.102;20.010;2022-08-03T08:56:55;98633.19;;;28.56;61.27
16806;BME280;8520;50.102;20.010;2022-08-03T08:59:45;98630.00;;;28.79;61.57
16806;BME280;8520;50.102;20.010;2022-08-03T09:02:37;98623.59;;;28.88;60.11
16806;BME280;8520;50.102;20.010;2022-08-03T09:05:29;98625.66;;;29.14;60.42
16806;BME280;8520;50.102;20.010;2022-08-03T09:08:39;98622.06;;;29.24;60.25
16806;BME280;8520;50.102;20.010;2022-08-03T09:11:27;98628.53;;;28.87;60.44
16806;BME280;8520;50.102;20.010;2022-08-03T09:14:37;98625.03;;;29.06;58.87
16806;BME280;8520;50.102;20.010;2022-08-03T09:17:46;98619.63;;;28.91;60.74
16806;BME280;8520;50.102;20.010;2022-08-03T09:20:37;98631.94;;;28.22;60.75
16806;BME280;8520;50.102;20.010;2022-08-03T09:23:43;98628.41;;;28.04;62.41
16806;BME280;8520;50.102;20.010;2022-08-03T09:26:50;98625.31;;;27.24;63.09
16806;BME280;8520;50.102;20.010;2022-08-03T09:29:46;98621.63;;;27.73;62.38
16806;BME280;8520;50.102;20.010;2022-08-03T09:32:36;98620.69;;;27.36;63.41
16806;BME280;8520;50.102;20.010;2022-08-03T09:35:25;98613.63;;;27.62;63.93
16806;BME280;8520;50.102;20.010;2022-08-03T09:38:34;98609.75;;;28.01;61.31
16806;BME280;8520;50.102;20.010;2022-08-03T09:41:22;98622.88;;;28.51;59.64
16806;BME280;8520;50.102;20.010;2022-08-03T09:44:11;98616.94;;;28.56;58.28
16806;BME280;8520;50.102;20.010;2022-08-03T09:47:15;98617.31;;;28.80;58.21
16806;BME280;8520;50.102;20.010;2022-08-03T09:50:05;98620.84;;;28.71;58.76
16806;BME280;8520;50.102;20.010;2022-08-03T09:53:00;98613.22;;;28.91;58.13
16806;BME280;8520;50.102;20.010;2022-08-03T09:55:53;98609.94;;;29.04;58.51
16806;BME280;8520;50.102;20.010;2022-08-03T09:59:01;98611.34;;;29.32;57.87
16806;BME280;8520;50.102;20.010;2022-08-03T10:01:50;98606.72;;;29.46;56.83
16806;BME280;8520;50.102;20.010;2022-08-03T10:04:47;98609.25;;;29.42;55.18
16806;BME280;8520;50.102;20.010;2022-08-03T10:07:44;98609.25;;;29.32;55.45
16806;BME280;8520;50.102;20.010;2022-08-03T10:10:41;98608.22;;;29.47;54.88
16806;BME280;8520;50.102;20.010;2022-08-03T10:13:30;98609.88;;;29.50;55.03
16806;BME280;8520;50.102;20.010;2022-08-03T10:16:18;98607.50;;;29.66;54.53
16806;BME280;8520;50.102;20.010;2022-08-03T10:19:11;98603.66;;;28.96;56.27
16806;BME280;8520;50.102;20.010;2022-08-03T10:22:05;98603.72;;;29.34;55.97
16806;BME280;8520;50.102;20.010;2022-08-03T10:24:58;98600.59;;;29.30;55.95
16806;BME280;8520;50.102;20.010;2022-08-03T10:27:50;98607.91;;;29.43;56.97
16806;BME280;8520;50.102;20.010;2022-08-03T10:30:40;98611.50;;;29.53;54.71
16806;BME280;8520;50.102;20.010;2022-08-03T10:33:33;98608.25;;;29.57;54.92
16806;BME280;8520;50.102;20.010;2022-08-03T10:36:39;98602.09;;;29.51;54.61
16806;BME280;8520;50.102;20.010;2022-08-03T10:39:30;98607.94;;;29.53;54.79
16806;BME280;8520;50.102;20.010;2022-08-03T10:42:23;98599.69;;;29.37;53.92
16806;BME280;8520;50.102;20.010;2022-08-03T10:45:17;98608.81;;;29.36;54.32
16806;BME280;8520;50.102;20.010;2022-08-03T10:48:07;98606.72;;;29.46;53.81
16806;BME280;8520;50.102;20.010;2022-08-03T10:50:56;98602.22;;;29.43;54.32
16806;BME280;8520;50.102;20.010;2022-08-03T10:53:45;98602.56;;;29.66;53.98
16806;BME280;8520;50.102;20.010;2022-08-03T10:56:42;98592.22;;;29.81;54.39
16806;BME280;8520;50.102;20.010;2022-08-03T11:00:00;98593.84;;;30.13;51.38
16806;BME280;8520;50.102;20.010;2022-08-03T11:03:07;98589.97;;;30.18;51.49
16806;BME280;8520;50.102;20.010;2022-08-03T11:06:14;98592.91;;;30.29;50.90
16806;BME280;8520;50.102;20.010;2022-08-03T11:09:17;98591.25;;;30.36;50.27
16806;BME280;8520;50.102;20.010;2022-08-03T11:12:20;98590.06;;;30.29;50.34
16806;BME280;8520;50.102;20.010;2022-08-03T11:15:31;98588.53;;;30.38;50.75
16806;BME280;8520;50.102;20.010;2022-08-03T11:18:20;98572.44;;;30.52;49.66
16806;BME280;8520;50.102;20.010;2022-08-03T11:21:13;98573.38;;;30.86;49.46
16806;BME280;8520;50.102;20.010;2022-08-03T11:24:01;98573.91;;;30.73;50.02
16806;BME280;8520;50.102;20.010;2022-08-03T11:27:15;98571.50;;;30.69;49.09
16806;BME280;8520;50.102;20.010;2022-08-03T11:30:08;98576.13;;;30.34;48.76
16806;BME280;8520;50.102;20.010;2022-08-03T11:32:58;98575.41;;;30.23;49.02
16806;BME280;8520;50.102;20.010;2022-08-03T11:35:57;98577.47;;;30.33;49.17
16806;BME280;8520;50.102;20.010;2022-08-03T11:39:13;98562.19;;;30.78;47.70
16806;BME280;8520;50.102;20.010;2022-08-03T11:45:26;98553.09;;;30.29;48.51
16806;BME280;8520;50.102;20.010;2022-08-03T11:48:15;98560.25;;;30.71;47.59
16806;BME280;8520;50.102;20.010;2022-08-03T11:51:05;98549.44;;;30.79;47.40
16806;BME280;8520;50.102;20.010;2022-08-03T11:53:55;98546.03;;;31.24;46.83
16806;BME280;8520;50.102;20.010;2022-08-03T11:56:45;98546.22;;;31.37;47.50
16806;BME280;8520;50.102;20.010;2022-08-03T11:59:35;98544.72;;;31.69;47.13
16806;BME280;8520;50.102;20.010;2022-08-03T12:02:26;98545.78;;;31.86;45.95
16806;BME280;8520;50.102;20.010;2022-08-03T12:05:15;98541.81;;;31.91;45.54
16806;BME280;8520;50.102;20.010;2022-08-03T12:08:03;98545.13;;;32.20;45.92
16806;BME280;8520;50.102;20.010;2022-08-03T12:10:55;98540.78;;;33.01;44.53
16806;BME280;8520;50.102;20.010;2022-08-03T12:13:45;98531.19;;;33.71;42.51
16806;BME280;8520;50.102;20.010;2022-08-03T12:16:53;98533.38;;;34.37;40.71
16806;BME280;8520;50.102;20.010;2022-08-03T12:19:43;98534.13;;;33.85;40.27
16806;BME280;8520;50.102;20.010;2022-08-03T12:22:32;98531.06;;;34.34;39.87
16806;BME280;8520;50.102;20.010;2022-08-03T12:25:23;98534.56;;;34.32;41.08
16806;BME280;8520;50.102;20.010;2022-08-03T12:28:25;98527.47;;;34.74;40.44
16806;BME280;8520;50.102;20.010;2022-08-03T12:31:23;98517.06;;;35.09;39.79
16806;BME280;8520;50.102;20.010;2022-08-03T12:34:12;98524.84;;;35.35;38.97
16806;BME280;8520;50.102;20.010;2022-08-03T12:37:04;98520.84;;;35.41;39.53
16806;BME280;8520;50.102;20.010;2022-08-03T12:40:09;98514.94;;;35.23;38.98
16806;BME280;8520;50.102;20.010;2022-08-03T12:43:10;98519.75;;;34.63;40.45
16806;BME280;8520;50.102;20.010;2022-08-03T12:46:11;98507.91;;;34.41;39.99
16806;BME280;8520;50.102;20.010;2022-08-03T12:49:05;98517.00;;;34.65;39.98
16806;BME280;8520;50.102;20.010;2022-08-03T12:51:56;98514.25;;;34.67;39.10
16806;BME280;8520;50.102;20.010;2022-08-03T12:54:55;98507.91;;;34.41;39.67
16806;BME280;8520;50.102;20.010;2022-08-03T12:57:44;98508.00;;;34.57;40.62
16806;BME280;8520;50.102;20.010;2022-08-03T13:00:32;98507.84;;;34.28;40.33
16806;BME280;8520;50.102;20.010;2022-08-03T13:03:23;98500.53;;;34.11;40.44
16806;BME280;8520;50.102;20.010;2022-08-03T13:06:28;98498.78;;;33.92;41.17
16806;BME280;8520;50.102;20.010;2022-08-03T13:09:16;98502.81;;;33.61;42.12
16806;BME280;8520;50.102;20.010;2022-08-03T13:12:09;98501.66;;;33.41;42.01
16806;BME280;8520;50.102;20.010;2022-08-03T13:14:58;98496.84;;;33.32;42.55
16806;BME280;8520;50.102;20.010;2022-08-03T13:17:47;98492.25;;;33.38;42.09
16806;BME280;8520;50.102;20.010;2022-08-03T13:20:35;98489.56;;;33.17;41.89
16806;BME280;8520;50.102;20.010;2022-08-03T13:23:24;98494.00;;;33.32;42.22
16806;BME280;8520;50.102;20.010;2022-08-03T13:26:12;98493.00;;;33.39;42.08
16806;BME280;8520;50.102;20.010;2022-08-03T13:29:02;98488.25;;;33.83;41.30
16806;BME280;8520;50.102;20.010;2022-08-03T13:31:51;98489.72;;;34.09;39.98
16806;BME280;8520;50.102;20.010;2022-08-03T13:34:40;98483.59;;;34.70;40.03
16806;BME280;8520;50.102;20.010;2022-08-03T13:37:28;98480.09;;;35.28;39.31
16806;BME280;8520;50.102;20.010;2022-08-03T13:40:18;98481.31;;;35.10;39.20
16806;BME280;8520;50.102;20.010;2022-08-03T13:43:16;98476.53;;;35.73;39.08
16806;BME280;8520;50.102;20.010;2022-08-03T13:46:06;98476.00;;;36.08;37.67
16806;BME280;8520;50.102;20.010;2022-08-03T13:48:54;98474.63;;;36.25;37.27
16806;BME280;8520;50.102;20.010;2022-08-03T13:51:42;98474.78;;;36.94;35.55
16806;BME280;8520;50.102;20.010;2022-08-03T13:54:31;98473.25;;;37.27;36.67
16806;BME280;8520;50.102;20.010;2022-08-03T13:57:20;98469.13;;;37.68;35.12
16806;BME280;8520;50.102;20.010;2022-08-03T14:00:28;98479.13;;;38.22;34.67
16806;BME280;8520;50.102;20.010;2022-08-03T14:03:18;98479.72;;;38.38;34.14
16806;BME280;8520;50.102;20.010;2022-08-03T14:06:07;98464.47;;;38.34;34.22
16806;BME280;8520;50.102;20.010;2022-08-03T14:08:55;98466.66;;;38.16;34.63
16806;BME280;8520;50.102;20.010;2022-08-03T14:11:46;98466.72;;;38.37;34.20
16806;BME280;8520;50.102;20.010;2022-08-03T14:14:54;98470.50;;;37.67;34.57
16806;BME280;8520;50.102;20.010;2022-08-03T14:17:47;98465.22;;;37.97;34.58
16806;BME280;8520;50.102;20.010;2022-08-03T14:20:37;98465.28;;;37.08;35.78
16806;BME280;8520;50.102;20.010;2022-08-03T14:23:38;98467.78;;;36.66;36.26
16806;BME280;8520;50.102;20.010;2022-08-03T14:26:27;98465.84;;;37.04;35.73
16806;BME280;8520;50.102;20.010;2022-08-03T14:29:16;98467.59;;;37.47;35.18
16806;BME280;8520;50.102;20.010;2022-08-03T14:32:05;98460.44;;;37.48;35.10
16806;BME280;8520;50.102;20.010;2022-08-03T14:34:58;98456.13;;;36.78;35.59
16806;BME280;8520;50.102;20.010;2022-08-03T14:37:48;98451.03;;;36.76;35.75
16806;BME280;8520;50.102;20.010;2022-08-03T14:40:37;98454.16;;;37.34;35.50
16806;BME280;8520;50.102;20.010;2022-08-03T14:43:26;98455.56;;;38.08;34.25
16806;BME280;8520;50.102;20.010;2022-08-03T14:46:20;98452.09;;;37.74;34.88
16806;BME280;8520;50.102;20.010;2022-08-03T14:49:08;98450.06;;;38.34;34.01
16806;BME280;8520;50.102;20.010;2022-08-03T14:52:16;98458.09;;;38.37;34.62
16806;BME280;8520;50.102;20.010;2022-08-03T14:55:07;98448.66;;;38.35;33.75
16806;BME280;8520;50.102;20.010;2022-08-03T14:57:56;98452.25;;;38.16;33.87
16806;BME280;8520;50.102;20.010;2022-08-03T15:00:44;98448.72;;;37.97;34.63
16806;BME280;8520;50.102;20.010;2022-08-03T15:03:32;98438.81;;;37.65;34.38
16806;BME280;8520;50.102;20.010;2022-08-03T15:06:21;98447.81;;;37.75;34.45
16806;BME280;8520;50.102;20.010;2022-08-03T15:09:09;98448.88;;;38.41;33.74
16806;BME280;8520;50.102;20.010;2022-08-03T15:12:11;98444.59;;;38.42;33.06
16806;BME280;8520;50.102;20.010;2022-08-03T15:14:59;98441.53;;;39.00;33.42
16806;BME280;8520;50.102;20.010;2022-08-03T15:17:47;98432.31;;;39.25;32.19